sensor_id;sensor_type;location;lat;lon;timestamp;pressure;altitude;pressure_sealevel;temperature;humidity
22550;BME280;11441;57.164;-2.120;2023-02-01T00:01:47;100100.88;;;4.91;100.00
22550;BME280;11441;57.164;-2.120;2023-02-01T00:04:14;100096.28;;;4.83;100.00
22550;BME280;11441;57.164;-2.120;2023-02-01T00:06:41;100114.13;;;4.81;100.00
22550;BME280;11441;57.164;-2.120;2023-02-01T00:09:07;100124.81;;;4.86;100.00
22550;BME280;11441;57.164;-2.120;2023-02-01T00:11:34;100109.25;;;4.86;100.00
22550;BME280;11441;57.164;-2.120;2023-02-01T00:14:01;100134.69;;;4.99;100.00
22550;BME280;11441;57.164;-2.120;2023-02-01T00:16:29;100121.22;;;4.94;100.00
22550;BME280;11441;57.164;-2.120;2023-02-01T00:18:59;100129.31;;;5.12;100.00
22550;BME280;11441;57.164;-2.120;2023-02-01T00:21:27;100121.44;;;5.10;100.00
22550;BME280;11441;57.164;-2.120;2023-02-01T00:23:54;100117.19;;;5.00;100.00
22550;BME280;11441;57.164;-2.120;2023-02-01T00:26:42;100112.41;;;4.97;100.00
22550;BME280;11441;57.164;-2.120;2023-02-01T00:29:18;100124.28;;;4.93;100.00
22550;BME280;11441;57.164;-2.120;2023-02-01T00:31:45;100125.34;;;4.79;100.00
22550;BME280;11441;57.164;-2.120;2023-02-01T00:34:15;100122.94;;;4.78;100.00
22550;BME280;11441;57.164;-2.120;2023-02-01T00:36:43;100128.13;;;4.70;100.00
22550;BME280;11441;57.164;-2.120;2023-02-01T00:39:11;100124.63;;;4.61;100.00
22550;BME280;11441;57.164;-2.120;2023-02-01T00:41:38;100095.91;;;4.64;100.00
22550;BME280;11441;57.164;-2.120;2023-02-01T00:44:07;100096.66;;;4.73;100.00
22550;BME280;11441;57.164;-2.120;2023-02-01T00:46:33;100085.28;;;4.71;100.00
22550;BME280;11441;57.164;-2.120;2023-02-01T00:49:19;100067.63;;;4.68;100.00
22550;BME280;11441;57.164;-2.120;2023-02-01T00:51:46;100062.84;;;4.65;100.00
22550;BME280;11441;57.164;-2.120;2023-02-01T00:54:13;100064.09;;;4.68;100.00
22550;BME280;11441;57.164;-2.120;2023-02-01T00:56:40;100056.72;;;4.68;100.00
22550;BME280;11441;57.164;-2.120;2023-02-01T00:59:11;100079.69;;;4.88;100.00
22550;BME280;11441;57.164;-2.120;2023-02-01T01:01:38;100067.59;;;4.98;100.00
22550;BME280;11441;57.164;-2.120;2023-02-01T01:04:05;100085.88;;;4.77;100.00
22550;BME280;11441;57.164;-2.120;2023-02-01T01:06:33;100087.22;;;4.70;100.00
22550;BME280;11441;57.164;-2.120;2023-02-01T01:09:05;100090.09;;;4.44;100.00
22550;BME280;11441;57.164;-2.120;2023-02-01T01:11:35;100088.00;;;4.41;100.00
22550;BME280;11441;57.164;-2.120;2023-02-01T01:14:05;100104.00;;;4.51;100.00
22550;BME280;11441;57.164;-2.120;2023-02-01T01:16:34;100147.13;;;4.58;100.00
22550;BME280;11441;57.164;-2.120;2023-02-01T01:19:02;100129.81;;;4.54;100.00
22550;BME280;11441;57.164;-2.120;2023-02-01T01:21:29;100111.31;;;4.60;100.00
22550;BME280;11441;57.164;-2.120;2023-02-01T01:23:56;100103.13;;;4.60;100.00
22550;BME280;11441;57.164;-2.120;2023-02-01T01:26:42;100091.88;;;4.31;100.00
22550;BME280;11441;57.164;-2.120;2023-02-01T01:29:09;100096.06;;;4.29;100.00
22550;BME280;11441;57.164;-2.120;2023-02-01T01:31:37;100102.28;;;4.38;100.00
22550;BME280;11441;57.164;-2.120;2023-02-01T01:34:04;100090.09;;;4.44;100.00
22550;BME280;11441;57.164;-2.120;2023-02-01T01:36:31;100088.75;;;4.50;100.00
22550;BME280;11441;57.164;-2.120;2023-02-01T01:38:58;100090.25;;;4.39;100.00
22550;BME280;11441;57.164;-2.120;2023-02-01T01:41:29;100080.91;;;4.49;100.00
22550;BME280;11441;57.164;-2.120;2023-02-01T01:44:04;100077.41;;;4.40;100.00
22550;BME280;11441;57.164;-2.120;2023-02-01T01:46:33;100100.16;;;4.44;100.00
22550;BME280;11441;57.164;-2.120;2023-02-01T01:51:52;100096.59;;;4.52;100.00
22550;BME280;11441;57.164;-2.120;2023-02-01T01:54:29;100083.81;;;4.44;100.00
22550;BME280;11441;57.164;-2.120;2023-02-01T01:57:00;100074.78;;;4.52;100.00
22550;BME280;11441;57.164;-2.120;2023-02-01T01:59:28;100066.56;;;4.31;100.00
22550;BME280;11441;57.164;-2.120;2023-02-01T02:01:57;100069.84;;;4.45;100.00
22550;BME280;11441;57.164;-2.120;2023-02-01T02:04:25;100059.06;;;4.49;100.00
22550;BME280;11441;57.164;-2.120;2023-02-01T02:06:57;100082.56;;;4.41;100.00
22550;BME280;11441;57.164;-2.120;2023-02-01T02:09:26;100083.69;;;4.31;100.00
22550;BME280;11441;57.164;-2.120;2023-02-01T02:11:53;100099.13;;;4.27;100.00
22550;BME280;11441;57.164;-2.120;2023-02-01T02:14:22;100071.22;;;4.30;100.00
22550;BME280;11441;57.164;-2.120;2023-02-01T02:16:52;100102.69;;;4.19;100.00
22550;BME280;11441;57.164;-2.120;2023-02-01T02:22:35;100071.19;;;3.92;100.00
22550;BME280;11441;57.164;-2.120;2023-02-01T02:34:38;100092.09;;;3.62;100.00
22550;BME280;11441;57.164;-2.120;2023-02-01T02:51:12;100041.00;;;3.50;100.00
22550;BME280;11441;57.164;-2.120;2023-02-01T02:56:53;100044.56;;;3.42;100.00
22550;BME280;11441;57.164;-2.120;2023-02-01T02:59:43;100028.97;;;3.59;100.00
22550;BME280;11441;57.164;-2.120;2023-02-01T03:02:32;100035.84;;;3.57;100.00
22550;BME280;11441;57.164;-2.120;2023-02-01T03:05:18;100038.72;;;3.78;100.00
22550;BME280;11441;57.164;-2.120;2023-02-01T03:07:58;100036.47;;;3.71;100.00
22550;BME280;11441;57.164;-2.120;2023-02-01T03:16:28;100054.22;;;3.86;100.00
22550;BME280;11441;57.164;-2.120;2023-02-01T03:21:40;100029.34;;;3.96;100.00
22550;BME280;11441;57.164;-2.120;2023-02-01T03:24:32;100047.91;;;4.03;100.00
22550;BME280;11441;57.164;-2.120;2023-02-01T03:29:43;100072.00;;;3.92;100.00
22550;BME280;11441;57.164;-2.120;2023-02-01T03:32:10;100067.38;;;3.84;100.00
22550;BME280;11441;57.164;-2.120;2023-02-01T03:34:37;100051.81;;;3.85;100.00
22550;BME280;11441;57.164;-2.120;2023-02-01T03:37:26;100051.09;;;3.58;100.00
22550;BME280;11441;57.164;-2.120;2023-02-01T03:40:01;100060.81;;;3.76;100.00
22550;BME280;11441;57.164;-2.120;2023-02-01T03:42:38;100067.75;;;3.56;100.00
22550;BME280;11441;57.164;-2.120;2023-02-01T03:45:31;100056.72;;;3.44;100.00
22550;BME280;11441;57.164;-2.120;2023-02-01T03:48:01;100065.50;;;3.58;100.00
22550;BME280;11441;57.164;-2.120;2023-02-01T03:50:30;100073.81;;;3.53;100.00
22550;BME280;11441;57.164;-2.120;2023-02-01T03:53:02;100069.69;;;3.30;100.00
22550;BME280;11441;57.164;-2.120;2023-02-01T03:55:31;100071.13;;;3.45;100.00
22550;BME280;11441;57.164;-2.120;2023-02-01T03:58:15;100075.13;;;3.47;100.00
22550;BME280;11441;57.164;-2.120;2023-02-01T04:00:51;100055.78;;;3.31;100.00
22550;BME280;11441;57.164;-2.120;2023-02-01T04:03:19;100055.78;;;3.40;100.00
22550;BME280;11441;57.164;-2.120;2023-02-01T04:06:05;100055.78;;;3.40;100.00
22550;BME280;11441;57.164;-2.120;2023-02-01T04:08:32;100048.84;;;3.51;100.00
22550;BME280;11441;57.164;-2.120;2023-02-01T04:10:59;100044.22;;;3.52;100.00
22550;BME280;11441;57.164;-2.120;2023-02-01T04:13:45;100033.81;;;3.54;100.00
22550;BME280;11441;57.164;-2.120;2023-02-01T04:16:11;100050.94;;;3.54;100.00
22550;BME280;11441;57.164;-2.120;2023-02-01T04:18:38;100031.69;;;3.59;100.00
22550;BME280;11441;57.164;-2.120;2023-02-01T04:21:05;100035.56;;;3.50;100.00
22550;BME280;11441;57.164;-2.120;2023-02-01T04:23:32;100037.16;;;3.51;100.00
22550;BME280;11441;57.164;-2.120;2023-02-01T04:26:03;100036.03;;;3.61;100.00
22550;BME280;11441;57.164;-2.120;2023-02-01T04:28:31;100040.19;;;3.58;100.00
22550;BME280;11441;57.164;-2.120;2023-02-01T04:30:58;100035.50;;;3.67;100.00
22550;BME280;11441;57.164;-2.120;2023-02-01T04:33:44;100023.81;;;3.67;100.00
22550;BME280;11441;57.164;-2.120;2023-02-01T04:36:10;100020.81;;;3.59;100.00
22550;BME280;11441;57.164;-2.120;2023-02-01T04:38:37;100015.72;;;3.49;100.00
22550;BME280;11441;57.164;-2.120;2023-02-01T04:41:04;100021.63;;;3.51;100.00
22550;BME280;11441;57.164;-2.120;2023-02-01T04:43:31;100022.75;;;3.50;100.00
22550;BME280;11441;57.164;-2.120;2023-02-01T04:45:58;100025.16;;;3.52;100.00
22550;BME280;11441;57.164;-2.120;2023-02-01T04:48:43;100034.25;;;3.65;100.00
22550;BME280;11441;57.164;-2.120;2023-02-01T04:51:11;100040.16;;;3.67;100.00
22550;BME280;11441;57.164;-2.120;2023-02-01T04:53:39;100034.91;;;3.62;100.00
22550;BME280;11441;57.164;-2.120;2023-02-01T04:56:06;100041.47;;;3.61;100.00
22550;BME280;11441;57.164;-2.120;2023-02-01T04:58:32;100061.19;;;3.57;100.00
22550;BME280;11441;57.164;-2.120;2023-02-01T05:01:03;100056.69;;;3.62;100.00
22550;BME280;11441;57.164;-2.120;2023-02-01T05:03:34;100024.97;;;3.48;100.00
22550;BME280;11441;57.164;-2.120;2023-02-01T05:06:20;100056.84;;;3.65;100.00
22550;BME280;11441;57.164;-2.120;2023-02-01T05:08:47;100065.00;;;3.65;100.00
22550;BME280;11441;57.164;-2.120;2023-02-01T05:11:14;100060.00;;;3.76;100.00
22550;BME280;11441;57.164;-2.120;2023-02-01T05:14:00;100065.63;;;3.71;100.00
22550;BME280;11441;57.164;-2.120;2023-02-01T05:16:28;100051.72;;;3.64;100.00
22550;BME280;11441;57.164;-2.120;2023-02-01T05:18:54;100067.38;;;3.84;100.00
22550;BME280;11441;57.164;-2.120;2023-02-01T05:21:39;100077.91;;;3.94;100.00
22550;BME280;11441;57.164;-2.120;2023-02-01T05:24:07;100077.13;;;3.94;100.00
22550;BME280;11441;57.164;-2.120;2023-02-01T05:26:40;100092.00;;;3.96;100.00
22550;BME280;11441;57.164;-2.120;2023-02-01T05:29:09;100101.63;;;4.03;100.00
22550;BME280;11441;57.164;-2.120;2023-02-01T05:31:36;100097.13;;;4.07;100.00
22550;BME280;11441;57.164;-2.120;2023-02-01T05:34:03;100096.16;;;4.03;100.00
22550;BME280;11441;57.164;-2.120;2023-02-01T05:36:31;100097.28;;;4.02;100.00
22550;BME280;11441;57.164;-2.120;2023-02-01T05:38:58;100107.53;;;4.05;100.00
22550;BME280;11441;57.164;-2.120;2023-02-01T05:41:25;100108.50;;;4.00;100.00
22550;BME280;11441;57.164;-2.120;2023-02-01T05:43:51;100108.34;;;4.05;100.00
22550;BME280;11441;57.164;-2.120;2023-02-01T05:46:19;100114.09;;;4.12;100.00
22550;BME280;11441;57.164;-2.120;2023-02-01T05:48:46;100109.94;;;4.06;100.00
22550;BME280;11441;57.164;-2.120;2023-02-01T05:51:12;100114.44;;;4.02;100.00
22550;BME280;11441;57.164;-2.120;2023-02-01T05:53:39;100113.94;;;4.09;100.00
22550;BME280;11441;57.164;-2.120;2023-02-01T05:56:06;100121.50;;;3.94;100.00
22550;BME280;11441;57.164;-2.120;2023-02-01T05:58:33;100109.97;;;3.97;100.00
22550;BME280;11441;57.164;-2.120;2023-02-01T06:01:01;100125.66;;;4.09;100.00
22550;BME280;11441;57.164;-2.120;2023-02-01T06:03:29;100128.34;;;4.18;100.00
22550;BME280;11441;57.164;-2.120;2023-02-01T06:05:55;100127.06;;;4.15;100.00
22550;BME280;11441;57.164;-2.120;2023-02-01T06:08:22;100147.09;;;4.11;100.00
22550;BME280;11441;57.164;-2.120;2023-02-01T06:11:04;100144.34;;;4.20;100.00
22550;BME280;11441;57.164;-2.120;2023-02-01T06:13:32;100156.38;;;4.27;100.00
22550;BME280;11441;57.164;-2.120;2023-02-01T06:16:01;100145.66;;;4.22;100.00
22550;BME280;11441;57.164;-2.120;2023-02-01T06:18:29;100148.88;;;4.15;100.00
22550;BME280;11441;57.164;-2.120;2023-02-01T06:20:58;100149.66;;;4.16;100.00
22550;BME280;11441;57.164;-2.120;2023-02-01T06:23:28;100157.03;;;4.24;100.00
22550;BME280;11441;57.164;-2.120;2023-02-01T06:26:03;100169.22;;;4.27;100.00
22550;BME280;11441;57.164;-2.120;2023-02-01T06:28:32;100166.97;;;4.29;100.00
22550;BME280;11441;57.164;-2.120;2023-02-01T06:31:03;100166.50;;;4.27;100.00
22550;BME280;11441;57.164;-2.120;2023-02-01T06:33:34;100175.94;;;4.29;100.00
22550;BME280;11441;57.164;-2.120;2023-02-01T06:36:20;100177.84;;;4.38;100.00
22550;BME280;11441;57.164;-2.120;2023-02-01T06:38:47;100188.44;;;4.30;100.00
22550;BME280;11441;57.164;-2.120;2023-02-01T06:41:15;100183.47;;;4.32;100.00
22550;BME280;11441;57.164;-2.120;2023-02-01T06:43:42;100196.63;;;4.30;100.00
22550;BME280;11441;57.164;-2.120;2023-02-01T06:46:12;100180.38;;;4.43;100.00
22550;BME280;11441;57.164;-2.120;2023-02-01T06:48:39;100192.91;;;4.35;100.00
22550;BME280;11441;57.164;-2.120;2023-02-01T06:51:06;100195.13;;;4.42;100.00
22550;BME280;11441;57.164;-2.120;2023-02-01T06:53:34;100223.38;;;4.37;100.00
22550;BME280;11441;57.164;-2.120;2023-02-01T06:56:18;100194.34;;;4.41;100.00
22550;BME280;11441;57.164;-2.120;2023-02-01T06:58:45;100214.41;;;4.37;100.00
22550;BME280;11441;57.164;-2.120;2023-02-01T07:01:13;100203.16;;;4.47;100.00
22550;BME280;11441;57.164;-2.120;2023-02-01T07:03:40;100208.09;;;4.53;100.00
22550;BME280;11441;57.164;-2.120;2023-02-01T07:06:08;100204.41;;;4.58;100.00
22550;BME280;11441;57.164;-2.120;2023-02-01T07:08:37;100203.94;;;4.47;100.00
22550;BME280;11441;57.164;-2.120;2023-02-01T07:11:06;100215.81;;;4.51;100.00
22550;BME280;11441;57.164;-2.120;2023-02-01T07:13:33;100212.09;;;4.56;100.00
22550;BME280;11441;57.164;-2.120;2023-02-01T07:16:02;100216.81;;;4.38;100.00
22550;BME280;11441;57.164;-2.120;2023-02-01T07:18:29;100237.97;;;4.41;100.00
22550;BME280;11441;57.164;-2.120;2023-02-01T07:20:57;100231.34;;;4.51;100.00
22550;BME280;11441;57.164;-2.120;2023-02-01T07:23:25;100225.47;;;4.40;100.00
22550;BME280;11441;57.164;-2.120;2023-02-01T07:25:56;100234.94;;;4.43;100.00
22550;BME280;11441;57.164;-2.120;2023-02-01T07:28:24;100240.84;;;4.45;100.00
22550;BME280;11441;57.164;-2.120;2023-02-01T07:30:52;100235.91;;;4.38;100.00
22550;BME280;11441;57.164;-2.120;2023-02-01T07:33:20;100248.72;;;4.46;100.00
22550;BME280;11441;57.164;-2.120;2023-02-01T07:35:48;100255.44;;;4.49;100.00
22550;BME280;11441;57.164;-2.120;2023-02-01T07:38:16;100258.81;;;4.46;100.00
22550;BME280;11441;57.164;-2.120;2023-02-01T07:40:44;100252.56;;;4.37;100.00
22550;BME280;11441;57.164;-2.120;2023-02-01T07:43:10;100268.00;;;4.32;100.00
22550;BME280;11441;57.164;-2.120;2023-02-01T07:45:37;100267.19;;;4.41;100.00
22550;BME280;11441;57.164;-2.120;2023-02-01T07:48:04;100266.03;;;4.42;100.00
22550;BME280;11441;57.164;-2.120;2023-02-01T07:50:31;100276.78;;;4.38;100.00
22550;BME280;11441;57.164;-2.120;2023-02-01T07:53:00;100287.38;;;4.40;100.00
22550;BME280;11441;57.164;-2.120;2023-02-01T07:55:27;100284.19;;;4.38;100.00
22550;BME280;11441;57.164;-2.120;2023-02-01T07:57:57;100293.63;;;4.31;100.00
22550;BME280;11441;57.164;-2.120;2023-02-01T08:00:25;100294.78;;;4.22;100.00
22550;BME280;11441;57.164;-2.120;2023-02-01T08:03:11;100306.00;;;4.11;100.00
22550;BME280;11441;57.164;-2.120;2023-02-01T08:05:55;100297.69;;;4.17;100.00
22550;BME280;11441;57.164;-2.120;2023-02-01T08:08:22;100317.53;;;4.17;100.00
22550;BME280;11441;57.164;-2.120;2023-02-01T08:10:50;100311.63;;;4.15;100.00
22550;BME280;11441;57.164;-2.120;2023-02-01T08:13:17;100334.06;;;4.21;100.00
22550;BME280;11441;57.164;-2.120;2023-02-01T08:15:44;100335.53;;;4.09;100.00
22550;BME280;11441;57.164;-2.120;2023-02-01T08:18:11;100335.00;;;4.16;100.00
22550;BME280;11441;57.164;-2.120;2023-02-01T08:20:37;100342.72;;;4.14;100.00
22550;BME280;11441;57.164;-2.120;2023-02-01T08:23:08;100349.31;;;4.04;100.00
22550;BME280;11441;57.164;-2.120;2023-02-01T08:25:35;100345.75;;;4.04;100.00
22550;BME280;11441;57.164;-2.120;2023-02-01T08:28:02;100344.31;;;3.97;100.00
22550;BME280;11441;57.164;-2.120;2023-02-01T08:30:29;100348.78;;;4.02;100.00
22550;BME280;11441;57.164;-2.120;2023-02-01T08:32:57;100343.19;;;3.99;100.00
22550;BME280;11441;57.164;-2.120;2023-02-01T08:35:24;100346.88;;;4.03;100.00
22550;BME280;11441;57.164;-2.120;2023-02-01T08:38:08;100356.19;;;4.19;100.00
22550;BME280;11441;57.164;-2.120;2023-02-01T08:40:34;100361.78;;;4.14;100.00
22550;BME280;11441;57.164;-2.120;2023-02-01T08:43:01;100373.00;;;4.12;100.00
22550;BME280;11441;57.164;-2.120;2023-02-01T08:45:28;100371.59;;;4.32;100.00
22550;BME280;11441;57.164;-2.120;2023-02-01T08:48:36;100381.72;;;4.23;100.00
22550;BME280;11441;57.164;-2.120;2023-02-01T08:51:05;100392.13;;;4.30;100.00
22550;BME280;11441;57.164;-2.120;2023-02-01T08:53:33;100383.94;;;4.39;100.00
22550;BME280;11441;57.164;-2.120;2023-02-01T08:56:20;100402.72;;;4.49;100.00
22550;BME280;11441;57.164;-2.120;2023-02-01T08:58:47;100391.63;;;4.45;100.00
22550;BME280;11441;57.164;-2.120;2023-02-01T09:01:15;100396.94;;;4.50;100.00
22550;BME280;11441;57.164;-2.120;2023-02-01T09:04:00;100406.25;;;4.49;100.00
22550;BME280;11441;57.164;-2.120;2023-02-01T09:06:27;100397.91;;;4.55;100.00
22550;BME280;11441;57.164;-2.120;2023-02-01T09:08:54;100396.13;;;4.41;100.00
22550;BME280;11441;57.164;-2.120;2023-02-01T09:11:22;100413.13;;;4.47;100.00
22550;BME280;11441;57.164;-2.120;2023-02-01T09:13:48;100413.28;;;4.50;100.00
22550;BME280;11441;57.164;-2.120;2023-02-01T09:16:15;100407.38;;;4.48;100.00
22550;BME280;11441;57.164;-2.120;2023-02-01T09:19:02;100399.50;;;4.47;100.00
22550;BME280;11441;57.164;-2.120;2023-02-01T09:21:49;100410.41;;;4.47;100.00
22550;BME280;11441;57.164;-2.120;2023-02-01T09:24:16;100412.81;;;4.57;100.00
22550;BME280;11441;57.164;-2.120;2023-02-01T09:26:44;100417.16;;;4.49;100.00
22550;BME280;11441;57.164;-2.120;2023-02-01T09:29:11;100413.94;;;4.65;100.00
22550;BME280;11441;57.164;-2.120;2023-02-01T09:31:39;100419.91;;;4.49;100.00
22550;BME280;11441;57.164;-2.120;2023-02-01T09:34:15;100424.06;;;4.64;100.00
22550;BME280;11441;57.164;-2.120;2023-02-01T09:36:42;100419.06;;;4.66;100.00
22550;BME280;11441;57.164;-2.120;2023-02-01T09:39:08;100437.69;;;4.73;100.00
22550;BME280;11441;57.164;-2.120;2023-02-01T09:44:18;100442.66;;;4.88;100.00
22550;BME280;11441;57.164;-2.120;2023-02-01T09:46:48;100439.13;;;4.88;100.00
22550;BME280;11441;57.164;-2.120;2023-02-01T09:49:20;100445.69;;;4.96;100.00
22550;BME280;11441;57.164;-2.120;2023-02-01T09:51:51;100446.31;;;5.01;100.00
22550;BME280;11441;57.164;-2.120;2023-02-01T09:54:22;100433.34;;;5.07;100.00
22550;BME280;11441;57.164;-2.120;2023-02-01T09:57:01;100445.53;;;4.92;100.00
22550;BME280;11441;57.164;-2.120;2023-02-01T09:59:33;100456.94;;;4.94;100.00
22550;BME280;11441;57.164;-2.120;2023-02-01T10:02:03;100457.06;;;5.15;100.00
22550;BME280;11441;57.164;-2.120;2023-02-01T10:04:52;100448.41;;;5.13;100.00
22550;BME280;11441;57.164;-2.120;2023-02-01T10:08:01;100457.41;;;5.05;100.00
22550;BME280;11441;57.164;-2.120;2023-02-01T10:10:48;100446.47;;;5.05;100.00
22550;BME280;11441;57.164;-2.120;2023-02-01T10:14:29;100464.78;;;5.13;100.00
22550;BME280;11441;57.164;-2.120;2023-02-01T10:16:38;100472.16;;;5.21;100.00
22550;BME280;11441;57.164;-2.120;2023-02-01T10:19:24;100489.16;;;5.27;100.00
22550;BME280;11441;57.164;-2.120;2023-02-01T10:22:02;100488.66;;;5.42;100.00
22550;BME280;11441;57.164;-2.120;2023-02-01T10:27:11;100507.66;;;5.30;100.00
22550;BME280;11441;57.164;-2.120;2023-02-01T10:29:41;100512.94;;;5.35;100.00
22550;BME280;11441;57.164;-2.120;2023-02-01T10:32:21;100510.97;;;5.44;100.00
22550;BME280;11441;57.164;-2.120;2023-02-01T10:34:57;100521.44;;;5.42;100.00
22550;BME280;11441;57.164;-2.120;2023-02-01T10:37:32;100528.50;;;5.43;100.00
22550;BME280;11441;57.164;-2.120;2023-02-01T10:40:03;100521.59;;;5.46;100.00
22550;BME280;11441;57.164;-2.120;2023-02-01T10:42:39;100522.84;;;5.57;100.00
22550;BME280;11441;57.164;-2.120;2023-02-01T10:45:06;100538.78;;;5.46;100.00
22550;BME280;11441;57.164;-2.120;2023-02-01T10:47:33;100536.50;;;5.48;100.00
22550;BME280;11441;57.164;-2.120;2023-02-01T10:52:46;100543.41;;;5.55;100.00
22550;BME280;11441;57.164;-2.120;2023-02-01T10:55:41;100545.81;;;5.65;100.00
22550;BME280;11441;57.164;-2.120;2023-02-01T10:58:32;100554.53;;;5.50;100.00
22550;BME280;11441;57.164;-2.120;2023-02-01T11:01:04;100538.13;;;5.50;100.00
22550;BME280;11441;57.164;-2.120;2023-02-01T11:03:39;100570.72;;;5.63;100.00
22550;BME280;11441;57.164;-2.120;2023-02-01T11:08:52;100553.84;;;5.70;100.00
22550;BME280;11441;57.164;-2.120;2023-02-01T11:11:20;100560.28;;;5.65;100.00
22550;BME280;11441;57.164;-2.120;2023-02-01T11:13:56;100554.19;;;5.51;100.00
22550;BME280;11441;57.164;-2.120;2023-02-01T11:16:54;100597.72;;;5.65;100.00
22550;BME280;11441;57.164;-2.120;2023-02-01T11:19:22;100570.91;;;5.58;100.00
22550;BME280;11441;57.164;-2.120;2023-02-01T11:21:54;100581.16;;;5.70;100.00
22550;BME280;11441;57.164;-2.120;2023-02-01T11:24:28;100566.84;;;5.82;100.00
22550;BME280;11441;57.164;-2.120;2023-02-01T11:27:16;100583.59;;;5.63;100.00
22550;BME280;11441;57.164;-2.120;2023-02-01T11:30:00;100579.56;;;5.69;100.00
22550;BME280;11441;57.164;-2.120;2023-02-01T11:32:28;100581.63;;;5.72;100.00
22550;BME280;11441;57.164;-2.120;2023-02-01T11:35:05;100592.41;;;5.77;100.00
22550;BME280;11441;57.164;-2.120;2023-02-01T11:37:36;100595.75;;;5.92;100.00
22550;BME280;11441;57.164;-2.120;2023-02-01T11:40:25;100601.88;;;5.80;100.00
22550;BME280;11441;57.164;-2.120;2023-02-01T11:42:55;100590.13;;;5.79;100.00
22550;BME280;11441;57.164;-2.120;2023-02-01T11:45:41;100609.09;;;5.84;100.00
22550;BME280;11441;57.164;-2.120;2023-02-01T11:48:19;100594.78;;;5.88;100.00
22550;BME280;11441;57.164;-2.120;2023-02-01T11:51:37;100595.75;;;5.92;100.00
22550;BME280;11441;57.164;-2.120;2023-02-01T12:00:02;100612.00;;;5.97;100.00
22550;BME280;11441;57.164;-2.120;2023-02-01T12:18:44;100602.78;;;6.19;100.00
22550;BME280;11441;57.164;-2.120;2023-02-01T12:21:33;100614.38;;;6.07;100.00
22550;BME280;11441;57.164;-2.120;2023-02-01T12:32:41;100605.66;;;6.22;100.00
22550;BME280;11441;57.164;-2.120;2023-02-01T12:43:52;100601.28;;;6.21;100.00
22550;BME280;11441;57.164;-2.120;2023-02-01T12:46:27;100597.91;;;6.25;100.00
22550;BME280;11441;57.164;-2.120;2023-02-01T12:49:00;100589.72;;;6.25;100.00
22550;BME280;11441;57.164;-2.120;2023-02-01T12:51:36;100604.53;;;6.23;100.00
22550;BME280;11441;57.164;-2.120;2023-02-01T12:56:47;100605.56;;;6.40;100.00
22550;BME280;11441;57.164;-2.120;2023-02-01T13:02:04;100620.88;;;6.41;100.00
22550;BME280;11441;57.164;-2.120;2023-02-01T13:04:47;100614.16;;;6.30;100.00
22550;BME280;11441;57.164;-2.120;2023-02-01T13:07:24;100614.34;;;6.16;100.00
22550;BME280;11441;57.164;-2.120;2023-02-01T13:10:18;100618.38;;;6.18;100.00
22550;BME280;11441;57.164;-2.120;2023-02-01T13:18:39;100621.44;;;6.17;100.00
22550;BME280;11441;57.164;-2.120;2023-02-01T13:21:27;100629.66;;;6.17;100.00
22550;BME280;11441;57.164;-2.120;2023-02-01T13:23:55;100630.25;;;6.22;100.00
22550;BME280;11441;57.164;-2.120;2023-02-01T13:26:22;100675.47;;;6.20;100.00
22550;BME280;11441;57.164;-2.120;2023-02-01T13:28:58;100634.25;;;6.25;100.00
22550;BME280;11441;57.164;-2.120;2023-02-01T13:34:44;100635.84;;;6.35;100.00
22550;BME280;11441;57.164;-2.120;2023-02-01T13:37:43;100640.84;;;6.33;100.00
22550;BME280;11441;57.164;-2.120;2023-02-01T13:40:44;100633.41;;;6.42;100.00
22550;BME280;11441;57.164;-2.120;2023-02-01T13:43:28;100660.66;;;6.30;100.00
22550;BME280;11441;57.164;-2.120;2023-02-01T13:46:04;100676.56;;;6.36;100.00
22550;BME280;11441;57.164;-2.120;2023-02-01T13:48:51;100669.50;;;6.27;100.00
22550;BME280;11441;57.164;-2.120;2023-02-01T13:51:35;100673.66;;;6.41;100.00
22550;BME280;11441;57.164;-2.120;2023-02-01T13:54:04;100663.03;;;6.40;100.00
22550;BME280;11441;57.164;-2.120;2023-02-01T13:56:40;100673.97;;;6.40;100.00
22550;BME280;11441;57.164;-2.120;2023-02-01T14:05:11;100665.00;;;6.31;100.00
22550;BME280;11441;57.164;-2.120;2023-02-01T14:13:40;100683.41;;;6.51;100.00
22550;BME280;11441;57.164;-2.120;2023-02-01T14:16:20;100685.50;;;6.54;100.00
22550;BME280;11441;57.164;-2.120;2023-02-01T14:18:56;100681.81;;;6.50;100.00
22550;BME280;11441;57.164;-2.120;2023-02-01T14:21:31;100691.00;;;6.46;100.00
22550;BME280;11441;57.164;-2.120;2023-02-01T14:26:48;100688.88;;;6.51;100.00
22550;BME280;11441;57.164;-2.120;2023-02-01T14:32:26;100695.69;;;6.45;100.00
22550;BME280;11441;57.164;-2.120;2023-02-01T14:34:59;100694.19;;;6.56;100.00
22550;BME280;11441;57.164;-2.120;2023-02-01T14:37:31;100690.97;;;6.54;100.00
22550;BME280;11441;57.164;-2.120;2023-02-01T14:40:05;100686.13;;;6.60;100.00
22550;BME280;11441;57.164;-2.120;2023-02-01T14:50:30;100713.34;;;6.56;100.00
22550;BME280;11441;57.164;-2.120;2023-02-01T14:58:51;100725.81;;;6.36;100.00
22550;BME280;11441;57.164;-2.120;2023-02-01T15:08:56;100711.28;;;6.53;100.00
22550;BME280;11441;57.164;-2.120;2023-02-01T15:14:30;100719.19;;;6.46;100.00
22550;BME280;11441;57.164;-2.120;2023-02-01T15:16:57;100719.44;;;6.62;100.00
22550;BME280;11441;57.164;-2.120;2023-02-01T15:19:26;100732.03;;;6.46;100.00
22550;BME280;11441;57.164;-2.120;2023-02-01T15:21:55;100732.34;;;6.53;100.00
22550;BME280;11441;57.164;-2.120;2023-02-01T15:24:24;100731.25;;;6.45;100.00
22550;BME280;11441;57.164;-2.120;2023-02-01T15:26:53;100742.19;;;6.45;100.00
22550;BME280;11441;57.164;-2.120;2023-02-01T15:29:22;100745.19;;;6.61;100.00
22550;BME280;11441;57.164;-2.120;2023-02-01T15:31:52;100730.91;;;6.55;100.00
22550;BME280;11441;57.164;-2.120;2023-02-01T15:34:20;100737.97;;;6.56;100.00
22550;BME280;11441;57.164;-2.120;2023-02-01T15:37:05;100740.41;;;6.49;100.00
22550;BME280;11441;57.164;-2.120;2023-02-01T15:39:32;100753.44;;;6.52;100.00